Portada
METAR-TAF:

METAR-TAF

Aeropuertos :

Islay, Escocia

latitud: 55-40-55N, longitud: 006-15-24W, altitud: 16 m

Observación

El informe se hizo hace 17 minutos, a las 22:50 UTC
Viento 11 kt del suroeste
Temperatura 14°C
Humedad 88%
Presión 1025 hPa
Visibilidad 10 km o más
Cielo nuboso a una altura de 3600 ft

METAR: EGPI 212250Z 22011KT 9999 BKN036 14/12 Q1025

Hora: 00:07 (23:07 UTC)

Pronóstico

El informe se hizo hace 9 horas y 10 minutos, a las 13:57 UTC
Pronóstico válido del 21 a las 15 UTC al 21 a las 18 UTC
Viento 12 kt del sur-suroeste
Visibilidad 10 km o más
Cielo nuboso a una altura de 2000 ft
Probabilidad 30% :
Temporalmente
del 21 a las 15 UTC al 21 a las 18 UTC
Viento 18 kt del suroeste con ráfagas de 28 kt
Visibilidad: 7000 m
Cielo nuboso a una altura de 1200 ft
lluvia

TAF: EGPI 211357Z 2115/2118 21012KT 9999 BKN020 PROB30 TEMPO 2115/2118 23018G28KT 7000 RA BKN012

Observaciones y pronósticos meteorológicos de más de 4000 aeropuertos (mensajes METAR y TAF).

Los puntos amarillos y rojos representan las estaciones disponibles.

Ponga el ratón en el punto deseado para ver el nombre de la estación.

Haga clic para ver las observaciones y los pronósticos meteorológicos.

Para cambiar el mapa : haga clic en los botones verdes con una cruz de color negro para hacer un zoom, en el botón verde con un guión para alejar o en las flechas verdes para mapas adyacentes.


METAR-TAF: